BST :: Breizh Spotting Team Index du Forum
BST :: Breizh Spotting Team
Accès au site BST Galerie Photos BST La BST sur Facebook FAQ  FAQ   Rechercher  Rechercher   Liste des Membres  Liste des Membres   Groupes d'utilisateurs  Groupes d'utilisateurs
S'enregistrer  ::  Connexion Se connecter pour vérifier ses messages privés



Poster un nouveau sujet  Répondre au sujet
 CRJ200 Air Nostrum EC-HEK le 16.01.09 « Voir le sujet précédent :: Voir le sujet suivant » 
Auteur Message
Adrien
MessagePosté le: Ven Jan 16, 2009 19:42    Sujet du message: CRJ200 Air Nostrum EC-HEK le 16.01.09 Répondre en citant



Inscrit le: 25 Mar 2008
Messages: 1621
Localisation: somewhere below the clouds !

La petite surprise du jour Very happy :
Merci Julien pour l'info Wink







Mon 18-55 était resté dans la voiture Embarassed
_________________
Revenir en haut
Voir le profil de l'utilisateur Envoyer un message privé Envoyer l'e-mail MSN Messenger
Razmo
MessagePosté le: Ven Jan 16, 2009 19:44    Sujet du message: Répondre en citant



Inscrit le: 11 Mar 2006
Messages: 1188
Localisation: brest LFRB

Et tu me dis que tes photos sont moches ??????

Non mais hooo ça va pas ça !!!

Adrien, tu sors !!! Arrow Arrow

Elles sont chouettes Wink Wink
_________________
Mes photos sur JP.net et sur BST
Revenir en haut
Voir le profil de l'utilisateur Envoyer un message privé MSN Messenger
Mindthegap
MessagePosté le: Ven Jan 16, 2009 20:16    Sujet du message: Répondre en citant



Inscrit le: 01 Déc 2007
Messages: 258
Localisation: Brest

Sympa !
C'était sans doute le vol qui devait se poser à Rennes. Quelle est la raison du déroutement ?
_________________
"Les français savent créer, mais ne savent rien garder" Antoine de Saint Exupéry
Revenir en haut
Voir le profil de l'utilisateur Envoyer un message privé Visiter le site web du posteur
Jens
MessagePosté le: Ven Jan 16, 2009 20:21    Sujet du message: Répondre en citant

Air Traffic Controller

Inscrit le: 03 Mar 2005
Messages: 5021
Localisation: Quelque Part Pas Loin Des Militaires.....

Brouillard à Rennes

LFRN 161800Z 17009KT 9999 SCT045 08/06 Q1017 NOSIG=
LFRN 161700Z 18009KT 9999 FEW023 BKN045 09/07 Q1017 NOSIG=
LFRN 161600Z 20009KT 9999 FEW023 BKN048 11/06 Q1017 NOSIG=
LFRN 161500Z 22012KT 180V250 9999 SCT020 12/06 Q1017 NOSIG=
LFRN 161400Z 18009KT 9999 SCT016 11/09 Q1017 NOSIG=
LFRN 161300Z 18008KT 9999 FEW005 BKN012 09/09 Q1017 BECMG BKN010=
LFRN 161224Z 17006KT 6000 OVC003 08/08 Q1018 BECMG BKN010=
LFRN 161200Z 17006KT 2500 BR OVC002 08/08 Q1018 BECMG 4000 BR OVC005=
LFRN 161134Z 19006KT 1500 BR OVC002 08/08 Q1018 BECMG 3000 BR OVC004=
LFRN 161100Z 19006KT 160V220 0600 R28/1400D FG VV/// 07/07 Q1018 BECMG 1500 BR OVC002=
LFRN 161030Z 19005KT 160V220 0400 R28/0800N FG VV/// 07/07 Q1018 NOSIG=
LFRN 161000Z 20004KT 170V230 0300 R28/0600N FG VV/// 07/07 Q1018 NOSIG=
LFRN 160935Z 22003KT 180V260 0300 R28/0550N FG VV/// 06/06 Q1018 NOSIG=
LFRN 160900Z 20003KT 0300 R28/0750N FG VV/// 06/06 Q1017 NOSIG=
LFRN 160830Z 15003KT 120V180 0400 R28/0750N FG VV/// 05/05 Q1017 NOSIG=
LFRN 160800Z 16003KT 0300 R28/0800N FG VV/// 05/05 Q1017 NOSIG=
LFRN 160741Z 15005KT 0400 R28/1000D FG VV/// 05/05 Q1017 NOSIG=
LFRN 160700Z 14002KT 0400 R28/1000D FG VV/// 05/04 Q1016 NOSIG=
LFRN 160630Z VRB02KT 0500 R28/0800N FG OVC002 04/04 Q1016 NOSIG=
LFRN 160600Z 15003KT 120V180 1000 R28/1700D BR OVC003 04/04 Q1016 NOSIG=
_________________
EOS 7D +Grip BG-E7 + 24-105 mm f/4 L IS USM + 100-400mm f/4.5-5.6L IS USM + 50mm f/1.4 EX DG HSM
Ne rêve pas ta vie, vis ton rêve... | l'invective ne déshonore que son auteur!
Revenir en haut
Voir le profil de l'utilisateur Envoyer un message privé MSN Messenger
Gérard
MessagePosté le: Ven Jan 16, 2009 20:24    Sujet du message: Répondre en citant



Inscrit le: 07 Jan 2006
Messages: 8146
Localisation: Dirinon

belle surprise Adrien Exclamation et de plus un CRJ Laughing de toute façon c'est bon pour le nombre de pax à Brest Wink
_________________
plus je connais les "hommes" plus j'aime mon chien
Revenir en haut
Voir le profil de l'utilisateur Envoyer un message privé Envoyer l'e-mail
Pascal
MessagePosté le: Ven Jan 16, 2009 22:09    Sujet du message: Répondre en citant



Inscrit le: 22 Mar 2005
Messages: 6550
Localisation: Rennes

Gérard a écrit:
belle surprise Adrien Exclamation et de plus un CRJ Laughing de toute façon c'est bon pour le nombre de pax à Brest Wink


Bonsoir à tous

Alors ils ne sont pas jolis les CRJ venant de Madrid Shocked S'il est allé se poser chez vous c'est qu'il était vide Very happy donc pour les pax Shame on you Very happy
Merci pour les photos Adrien Very happy Very happy Very happy

A + Pascal
Revenir en haut
Voir le profil de l'utilisateur Envoyer un message privé Visiter le site web du posteur
Marine
MessagePosté le: Sam Jan 17, 2009 12:35    Sujet du message: Répondre en citant



Inscrit le: 29 Sep 2008
Messages: 493
Localisation: La Martyre

Magnifique ce CRJ !!
Merci pour ces photos !!
Revenir en haut
Voir le profil de l'utilisateur Envoyer un message privé
Montrer les messages depuis:   
Poster un nouveau sujet  Répondre au sujet Page 1 sur 1


Sauter vers:  



Vous ne pouvez pas poster de nouveaux sujets dans ce forum
Vous ne pouvez pas répondre aux sujets dans ce forum
Vous ne pouvez pas éditer vos messages dans ce forum
Vous ne pouvez pas supprimer vos messages dans ce forum
Vous ne pouvez pas voter dans les sondages de ce forum


DAJ Glass (1.0.8) template by Dustin Baccetti
EQ graphic based off of a design from www.freeclipart.nu
Powered by phpBB Forum © 2001, 2005 phpBB Group
Traduction par : phpBB-fr.com